Terminal Aerodrome Forecast
Issued by NWS

Home | Current Version | Previous Version | Graphics & Text | Print | Product List | Glossary Off
Versions: 1 2 3 4 5 6 7 8 9 10 11 12 13 14 15 16 17 18 19 20 21 22 23

000
FTUS43 KMPX 260533
TAFRWF
TAF
KRWF 260533Z 2606/2706 27006KT P6SM -SHRA SCT020 BKN030
     FM260700 22005KT P6SM SCT250
     FM261400 29008KT P6SM FEW250
     FM270100 VRB03KT P6SM VCSH BKN050=

USA.gov is the U.S. government's official web portal to all federal, state and local government web resources and services.